Birchwood, Wisconsin
Current Conditions -  °F | °C
As of 9:55 PM on Friday 24 Oct 2014 (Local Time) from KRPD Reporting Station
Haze Haze  
Wind Chill: 56°   Ceiling: 400
Heat Index: 56°   Visibility: 2.5mi
Dew Point: 54°   Wind: 7mph
Humidity: 92%   Direction: 190°S
Pressure: 29.86"   Gusts: NA
Location:  45.67°N, 91.56°W
Report Text: KRPD 250255Z AUTO 19006KT 2 1/2SM BR OVC004 13/12 A2986 RMK AO2 T01320120
Loading
Personal Weather Stations






























Interactive Weather Map
Tropical Storm Tracking
New forecast layout! Learn more

10-Day Weather Forecast

Advertisements
Track Severe Weather on mobile